Time;durP1;ratioP1;P1;durP2;ratioP2;P2;SDS_P1;SDS_P2;PMS_P1;PMS_P2;Temp;Humidity;BMP_temperature;BMP_pressure;BME280_temperature;BME280_humidity;BME280_pressure;Samples;Min_cycle;Max_cycle;Signal;HPM_P1;HPM_P2
2022/10/01 00:01:15;;;;;;;;;;;461.50;2380.80;;;;;;5090801;28;19908;-65
2022/10/01 00:03:41;;;;;;;;;;;486.40;2380.80;;;;;;5090381;28;20338;-65
2022/10/01 00:06:11;;;;;;;;;;;486.50;2380.80;;;;;;5090083;28;19931;-66
2022/10/01 00:08:38;;;;;;;;;;;486.70;2380.80;;;;;;5090319;28;19916;-64
2022/10/01 00:11:08;;;;;;;;;;;486.70;2380.80;;;;;;5090539;28;19960;-64
2022/10/01 00:13:34;;;;;;;;;;;486.80;2380.80;;;;;;5090767;28;19954;-63
2022/10/01 00:16:03;;;;;;;;;;;486.80;2380.80;;;;;;5090056;28;20259;-68
2022/10/01 00:18:29;;;;;;;;;;;486.90;2380.80;;;;;;5090326;28;19923;-69
2022/10/01 00:20:55;;;;;;;;;;;487.10;2380.80;;;;;;5090145;28;19961;-63
2022/10/01 00:23:21;;;;;;;;;;;487.20;2380.80;;;;;;5090690;28;20003;-61
2022/10/01 00:25:49;;;;;;;;;;;487.30;2380.80;;;;;;5090405;28;19908;-63
2022/10/01 00:28:14;;;;;;;;;;;487.30;2380.80;;;;;;5090326;28;20419;-62
2022/10/01 00:30:46;;;;;;;;;;;512.00;2380.80;;;;;;5090509;28;19908;-62
2022/10/01 00:33:12;;;;;;;;;;;512.10;2380.80;;;;;;5090467;28;20247;-62
2022/10/01 00:35:38;;;;;;;;;;;512.00;2380.80;;;;;;5090001;28;19947;-62
2022/10/01 00:38:03;;;;;;;;;;;487.30;2380.80;;;;;;5090552;28;19999;-63
2022/10/01 00:40:30;;;;;;;;;;;487.30;2380.80;;;;;;5090347;28;20266;-67
2022/10/01 00:42:55;;;;;;;;;;;487.00;2380.80;;;;;;5090071;28;19912;-66
2022/10/01 00:45:21;;;;;;;;;;;486.90;2380.80;;;;;;5091685;28;20010;-66
2022/10/01 00:47:49;;;;;;;;;;;486.70;2380.80;;;;;;5093738;28;19916;-64
2022/10/01 00:50:21;;;;;;;;;;;486.50;2380.80;;;;;;5094037;28;19912;-66
2022/10/01 00:52:53;;;;;;;;;;;461.60;2380.80;;;;;;5094017;28;19908;-65
2022/10/01 00:55:21;;;;;;;;;;;461.50;2380.80;;;;;;5093847;28;20007;-66
2022/10/01 00:57:46;;;;;;;;;;;486.40;2380.80;;;;;;5093729;28;19958;-66
2022/10/01 01:00:13;;;;;;;;;;;486.40;2380.80;;;;;;5093833;28;19947;-66
2022/10/01 01:02:39;;;;;;;;;;;461.70;2380.80;;;;;;5093480;28;19909;-67
2022/10/01 01:05:06;;;;;;;;;;;461.60;2380.80;;;;;;5093308;28;20423;-63
2022/10/01 01:07:32;;;;;;;;;;;461.40;2380.80;;;;;;5093711;28;19952;-67
2022/10/01 01:09:59;;;;;;;;;;;461.30;2380.80;;;;;;5093626;28;20273;-67
2022/10/01 01:12:46;;;;;;;;;;;461.10;2380.80;;;;;;5093522;28;19965;-63
2022/10/01 01:15:25;;;;;;;;;;;461.00;2380.80;;;;;;5093749;28;19912;-68
2022/10/01 01:18:04;;;;;;;;;;;460.90;2380.80;;;;;;5093619;28;19908;-67
2022/10/01 01:20:48;;;;;;;;;;;460.90;2380.80;;;;;;5093206;28;20229;-67
2022/10/01 01:23:14;;;;;;;;;;;460.90;2380.80;;;;;;5093367;28;19912;-65
2022/10/01 01:25:43;;;;;;;;;;;461.00;2380.80;;;;;;5093365;28;19908;-66
2022/10/01 01:28:18;;;;;;;;;;;460.90;2380.80;;;;;;5093147;28;19912;-67
2022/10/01 01:30:44;;;;;;;;;;;460.90;2380.80;;;;;;5093225;28;19912;-66
2022/10/01 01:33:14;;;;;;;;;;;461.00;2380.80;;;;;;5093311;28;19912;-62
2022/10/01 01:36:06;;;;;;;;;;;436.00;2355.20;;;;;;5092969;28;19985;-67
2022/10/01 01:38:34;;;;;;;;;;;435.70;2355.20;;;;;;5090794;28;20266;-67
2022/10/01 01:41:01;;;;;;;;;;;435.70;2355.20;;;;;;5093025;28;19994;-63
2022/10/01 01:43:32;;;;;;;;;;;435.80;2355.20;;;;;;5092760;28;20293;-66
2022/10/01 01:45:59;;;;;;;;;;;436.00;2355.20;;;;;;5092703;28;19908;-67
2022/10/01 01:48:25;;;;;;;;;;;436.10;2355.20;;;;;;5092889;28;20766;-63
2022/10/01 01:50:57;;;;;;;;;;;460.90;2380.80;;;;;;5092747;28;19908;-66
2022/10/01 01:53:22;;;;;;;;;;;461.20;2380.80;;;;;;5092871;28;19908;-63
2022/10/01 01:55:48;;;;;;;;;;;461.40;2380.80;;;;;;5092240;28;20404;-62
2022/10/01 01:58:18;;;;;;;;;;;461.70;2380.80;;;;;;5091722;28;20349;-67
2022/10/01 02:00:45;;;;;;;;;;;486.70;2380.80;;;;;;5092646;28;19908;-67
2022/10/01 02:03:10;;;;;;;;;;;486.80;2380.80;;;;;;5092461;28;19912;-64
2022/10/01 02:05:42;;;;;;;;;;;461.40;2380.80;;;;;;5092136;28;20396;-62
2022/10/01 02:08:14;;;;;;;;;;;461.20;2380.80;;;;;;5092056;28;20012;-66
2022/10/01 02:10:49;;;;;;;;;;;461.00;2380.80;;;;;;5092537;28;19931;-66
2022/10/01 02:13:33;;;;;;;;;;;460.90;2380.80;;;;;;5092225;28;19916;-62
2022/10/01 02:16:08;;;;;;;;;;;460.80;2380.80;;;;;;5092206;28;19934;-63
2022/10/01 02:18:39;;;;;;;;;;;461.00;2380.80;;;;;;5091940;28;19932;-63
2022/10/01 02:21:23;;;;;;;;;;;461.10;2380.80;;;;;;5091951;28;20369;-65
2022/10/01 02:23:57;;;;;;;;;;;461.40;2380.80;;;;;;5092017;28;19955;-66
2022/10/01 02:26:23;;;;;;;;;;;461.50;2380.80;;;;;;5092156;28;19916;-62
2022/10/01 02:28:51;;;;;;;;;;;461.70;2380.80;;;;;;5091797;28;19920;-67
2022/10/01 02:31:17;;;;;;;;;;;461.70;2380.80;;;;;;5091957;28;19908;-68
2022/10/01 02:33:45;;;;;;;;;;;461.70;2380.80;;;;;;5091737;28;19916;-67
2022/10/01 02:36:12;;;;;;;;;;;461.60;2380.80;;;;;;5091892;28;19923;-64
2022/10/01 02:38:39;;;;;;;;;;;461.60;2380.80;;;;;;5091602;28;19908;-67
2022/10/01 02:41:07;;;;;;;;;;;461.70;2380.80;;;;;;5091471;28;19912;-67
2022/10/01 02:43:42;;;;;;;;;;;461.60;2380.80;;;;;;5092064;28;19912;-67
2022/10/01 02:46:18;;;;;;;;;;;461.50;2380.80;;;;;;5091493;28;19908;-67
2022/10/01 02:48:44;;;;;;;;;;;461.40;2380.80;;;;;;5091620;28;19920;-65
2022/10/01 02:51:17;;;;;;;;;;;461.50;2380.80;;;;;;5091499;28;19917;-66
2022/10/01 02:53:46;;;;;;;;;;;461.70;2380.80;;;;;;5091490;28;19908;-64
2022/10/01 02:56:13;;;;;;;;;;;461.70;2380.80;;;;;;5091496;28;19908;-66
2022/10/01 02:58:40;;;;;;;;;;;486.50;2380.80;;;;;;5091452;28;19937;-65
2022/10/01 03:01:05;;;;;;;;;;;486.70;2380.80;;;;;;5091232;28;19908;-62
2022/10/01 03:03:31;;;;;;;;;;;486.80;2380.80;;;;;;5091398;28;19915;-65
2022/10/01 03:05:57;;;;;;;;;;;486.80;2380.80;;;;;;5090936;28;20003;-62
2022/10/01 03:08:22;;;;;;;;;;;487.00;2380.80;;;;;;5090870;28;20415;-63
2022/10/01 03:10:49;;;;;;;;;;;487.00;2380.80;;;;;;5091034;28;19908;-66
2022/10/01 03:13:16;;;;;;;;;;;487.00;2380.80;;;;;;5090956;28;19968;-63
2022/10/01 03:15:44;;;;;;;;;;;487.00;2380.80;;;;;;5091273;28;19908;-66
2022/10/01 03:18:10;;;;;;;;;;;487.10;2380.80;;;;;;5091203;28;20281;-64
2022/10/01 03:20:35;;;;;;;;;;;487.00;2380.80;;;;;;5090916;28;19908;-65
2022/10/01 03:23:01;;;;;;;;;;;487.00;2380.80;;;;;;5091011;28;20414;-66
2022/10/01 03:25:26;;;;;;;;;;;487.00;2380.80;;;;;;5090927;28;19912;-65
2022/10/01 03:27:52;;;;;;;;;;;487.00;2380.80;;;;;;5091071;28;19912;-66
2022/10/01 03:30:18;;;;;;;;;;;487.00;2380.80;;;;;;5090942;28;19955;-63
2022/10/01 03:32:43;;;;;;;;;;;487.00;2380.80;;;;;;5090801;28;19915;-63
2022/10/01 03:35:09;;;;;;;;;;;487.00;2380.80;;;;;;5090818;28;19938;-65
2022/10/01 03:37:34;;;;;;;;;;;486.80;2380.80;;;;;;5090887;28;19916;-64
2022/10/01 03:40:00;;;;;;;;;;;486.80;2380.80;;;;;;5090970;28;19908;-65
2022/10/01 03:42:25;;;;;;;;;;;486.80;2380.80;;;;;;5090728;28;19969;-65
2022/10/01 03:44:51;;;;;;;;;;;486.80;2380.80;;;;;;5090939;28;19914;-67
2022/10/01 03:47:17;;;;;;;;;;;486.80;2380.80;;;;;;5090769;28;19908;-65
2022/10/01 03:49:42;;;;;;;;;;;486.70;2380.80;;;;;;5091034;28;20340;-66
2022/10/01 03:52:08;;;;;;;;;;;486.70;2380.80;;;;;;5090631;28;19915;-65
2022/10/01 03:54:34;;;;;;;;;;;486.70;2380.80;;;;;;5090713;28;19951;-66
2022/10/01 03:56:59;;;;;;;;;;;486.70;2380.80;;;;;;5090607;28;19922;-65
2022/10/01 03:59:28;;;;;;;;;;;486.70;2380.80;;;;;;5090557;28;19970;-62
2022/10/01 04:01:53;;;;;;;;;;;486.80;2380.80;;;;;;5091056;28;20277;-67
2022/10/01 04:04:19;;;;;;;;;;;486.70;2380.80;;;;;;5090144;28;19913;-67
2022/10/01 04:06:44;;;;;;;;;;;486.70;2380.80;;;;;;5090476;28;19924;-63
2022/10/01 04:09:10;;;;;;;;;;;486.70;2380.80;;;;;;5090769;28;19922;-65
2022/10/01 04:11:36;;;;;;;;;;;486.70;2380.80;;;;;;5090384;28;19908;-63
2022/10/01 04:14:01;;;;;;;;;;;486.60;2380.80;;;;;;5090776;28;19948;-64
2022/10/01 04:16:27;;;;;;;;;;;486.50;2380.80;;;;;;5090502;28;19912;-65
2022/10/01 04:18:53;;;;;;;;;;;486.50;2380.80;;;;;;5090694;28;19912;-67
2022/10/01 04:21:19;;;;;;;;;;;486.50;2380.80;;;;;;5093167;28;19957;-65
2022/10/01 04:23:44;;;;;;;;;;;486.70;2380.80;;;;;;5094567;28;20015;-61
2022/10/01 04:26:10;;;;;;;;;;;486.70;2380.80;;;;;;5094573;28;19909;-62
2022/10/01 04:28:35;;;;;;;;;;;486.80;2380.80;;;;;;5094427;28;19963;-64
2022/10/01 04:33:45;;;;;;;;;;;486.80;2380.80;;;;;;5094457;28;19923;-63
2022/10/01 04:36:10;;;;;;;;;;;486.80;2380.80;;;;;;5094451;28;20269;-65
2022/10/01 04:38:36;;;;;;;;;;;486.90;2380.80;;;;;;5094151;28;19908;-62
2022/10/01 04:41:01;;;;;;;;;;;486.80;2380.80;;;;;;5094300;28;20319;-66
2022/10/01 04:43:27;;;;;;;;;;;486.70;2380.80;;;;;;5094053;28;19916;-66
2022/10/01 04:45:53;;;;;;;;;;;486.80;2380.80;;;;;;5094717;28;19908;-66
2022/10/01 04:48:18;;;;;;;;;;;486.90;2380.80;;;;;;5093981;28;20018;-66
2022/10/01 04:50:44;;;;;;;;;;;486.90;2380.80;;;;;;5094302;28;19912;-66
2022/10/01 04:53:09;;;;;;;;;;;486.80;2380.80;;;;;;5093778;28;19946;-67
2022/10/01 04:55:35;;;;;;;;;;;486.80;2380.80;;;;;;5093840;28;19966;-64
2022/10/01 04:58:01;;;;;;;;;;;486.40;2380.80;;;;;;5093918;28;19908;-67
2022/10/01 05:00:27;;;;;;;;;;;486.40;2380.80;;;;;;5093886;28;20389;-67
2022/10/01 05:02:53;;;;;;;;;;;486.50;2380.80;;;;;;5093905;28;19961;-67
2022/10/01 05:05:19;;;;;;;;;;;486.50;2380.80;;;;;;5093430;28;20011;-66
2022/10/01 05:07:45;;;;;;;;;;;486.50;2380.80;;;;;;5093707;28;20345;-64
2022/10/01 05:10:12;;;;;;;;;;;486.50;2380.80;;;;;;5093610;28;19912;-63
2022/10/01 05:12:37;;;;;;;;;;;486.70;2380.80;;;;;;5093790;28;20253;-65
2022/10/01 05:15:03;;;;;;;;;;;486.70;2380.80;;;;;;5093681;28;19912;-66
2022/10/01 05:17:31;;;;;;;;;;;486.70;2380.80;;;;;;5093365;28;19908;-67
2022/10/01 05:19:57;;;;;;;;;;;486.70;2380.80;;;;;;5093404;28;20069;-67
2022/10/01 05:22:22;;;;;;;;;;;486.60;2380.80;;;;;;5093564;28;19962;-67
2022/10/01 05:24:48;;;;;;;;;;;486.50;2380.80;;;;;;5092936;28;19908;-66
2022/10/01 05:27:13;;;;;;;;;;;486.50;2380.80;;;;;;5093291;28;20002;-62
2022/10/01 05:29:40;;;;;;;;;;;486.70;2380.80;;;;;;5093003;28;19973;-62
2022/10/01 05:32:06;;;;;;;;;;;486.70;2380.80;;;;;;5092926;28;20379;-66
2022/10/01 05:34:32;;;;;;;;;;;486.60;2380.80;;;;;;5093126;28;19912;-61
2022/10/01 05:36:57;;;;;;;;;;;486.60;2380.80;;;;;;5092845;28;19943;-65
2022/10/01 05:39:23;;;;;;;;;;;486.70;2380.80;;;;;;5093292;28;20285;-62
2022/10/01 05:41:49;;;;;;;;;;;486.50;2380.80;;;;;;5092785;28;20265;-65
2022/10/01 05:44:14;;;;;;;;;;;486.70;2380.80;;;;;;5093078;28;19911;-67
2022/10/01 05:46:42;;;;;;;;;;;486.70;2380.80;;;;;;5093210;28;20362;-66
2022/10/01 05:49:08;;;;;;;;;;;486.70;2380.80;;;;;;5092677;28;19969;-63
2022/10/01 05:51:35;;;;;;;;;;;486.70;2380.80;;;;;;5092825;28;19908;-67
2022/10/01 05:54:03;;;;;;;;;;;486.70;2380.80;;;;;;5092814;28;19930;-63
2022/10/01 05:56:29;;;;;;;;;;;486.70;2380.80;;;;;;5092751;28;20338;-66
2022/10/01 05:58:55;;;;;;;;;;;486.70;2380.80;;;;;;5092741;28;19919;-65
2022/10/01 06:01:20;;;;;;;;;;;486.70;2380.80;;;;;;5092949;28;19908;-63
2022/10/01 06:03:49;;;;;;;;;;;486.80;2380.80;;;;;;5092553;28;19912;-61
2022/10/01 06:06:19;;;;;;;;;;;486.80;2380.80;;;;;;5092276;28;20362;-64
2022/10/01 06:08:45;;;;;;;;;;;487.00;2380.80;;;;;;5092511;28;19919;-66
2022/10/01 06:11:11;;;;;;;;;;;487.00;2380.80;;;;;;5092574;28;20632;-66
2022/10/01 06:13:36;;;;;;;;;;;486.90;2380.80;;;;;;5092234;28;19908;-65
2022/10/01 06:16:02;;;;;;;;;;;487.00;2380.80;;;;;;5092284;28;19908;-65
2022/10/01 06:18:28;;;;;;;;;;;487.00;2380.80;;;;;;5092296;28;19915;-66
2022/10/01 06:20:53;;;;;;;;;;;487.00;2380.80;;;;;;5092558;28;19908;-66
2022/10/01 06:23:19;;;;;;;;;;;487.00;2380.80;;;;;;5092055;28;19909;-64
2022/10/01 06:25:44;;;;;;;;;;;487.10;2380.80;;;;;;5092284;28;19916;-65
2022/10/01 06:28:11;;;;;;;;;;;487.20;2380.80;;;;;;5092163;28;20289;-66
2022/10/01 06:30:38;;;;;;;;;;;487.20;2380.80;;;;;;5091863;28;20373;-65
2022/10/01 06:33:08;;;;;;;;;;;487.10;2380.80;;;;;;5092101;28;20011;-63
2022/10/01 06:35:34;;;;;;;;;;;487.10;2380.80;;;;;;5092098;28;20400;-62
2022/10/01 06:38:02;;;;;;;;;;;487.30;2380.80;;;;;;5091685;28;19963;-63
2022/10/01 06:40:28;;;;;;;;;;;487.30;2380.80;;;;;;5091656;28;19991;-66
2022/10/01 06:42:57;;;;;;;;;;;512.20;2380.80;;;;;;5091502;28;19908;-67
2022/10/01 06:45:23;;;;;;;;;;;512.50;2380.80;;;;;;5091959;28;19950;-63
2022/10/01 06:47:52;;;;;;;;;;;512.90;2380.80;;;;;;5091673;28;19908;-64
2022/10/01 06:50:17;;;;;;;;;;;512.90;2380.80;;;;;;5091692;28;20053;-65
2022/10/01 06:52:49;;;;;;;;;;;537.80;2380.80;;;;;;5091568;28;19985;-66
2022/10/01 06:55:16;;;;;;;;;;;538.00;2329.60;;;;;;5091652;28;19922;-67
2022/10/01 06:57:41;;;;;;;;;;;538.10;2329.60;;;;;;5091830;28;20259;-66
2022/10/01 07:00:07;;;;;;;;;;;538.20;2252.80;;;;;;5091578;28;19915;-62
2022/10/01 07:02:33;;;;;;;;;;;538.30;2201.60;;;;;;5091503;28;19912;-67
2022/10/01 07:04:59;;;;;;;;;;;538.40;2201.60;;;;;;5091042;28;19961;-67
2022/10/01 07:07:28;;;;;;;;;;;538.50;2176.00;;;;;;5091387;28;19920;-68
2022/10/01 07:09:54;;;;;;;;;;;563.20;2176.00;;;;;;5091432;28;19923;-63
2022/10/01 07:12:19;;;;;;;;;;;563.40;2201.60;;;;;;5091031;28;19912;-66
2022/10/01 07:14:45;;;;;;;;;;;563.50;2176.00;;;;;;5090988;28;20007;-64
2022/10/01 07:17:11;;;;;;;;;;;563.70;2124.80;;;;;;5091312;28;19908;-66
2022/10/01 07:19:36;;;;;;;;;;;564.00;2099.20;;;;;;5090904;28;19936;-65
2022/10/01 07:22:02;;;;;;;;;;;589.10;2073.60;;;;;;5091132;28;19909;-62
2022/10/01 07:24:27;;;;;;;;;;;614.40;1996.80;;;;;;5090900;28;19923;-67
2022/10/01 07:26:54;;;;;;;;;;;614.70;1945.60;;;;;;5091089;28;19913;-67
2022/10/01 07:29:21;;;;;;;;;;;614.60;1945.60;;;;;;5090947;28;19916;-65
2022/10/01 07:31:47;;;;;;;;;;;614.40;1971.20;;;;;;5090781;28;20361;-62
2022/10/01 07:34:13;;;;;;;;;;;589.70;1945.60;;;;;;5090882;28;20002;-65
2022/10/01 07:36:39;;;;;;;;;;;589.60;1996.80;;;;;;5090692;28;19941;-66
2022/10/01 07:39:05;;;;;;;;;;;589.40;1996.80;;;;;;5090775;28;20270;-63
2022/10/01 07:41:30;;;;;;;;;;;589.40;1996.80;;;;;;5090748;28;20413;-66
2022/10/01 07:43:56;;;;;;;;;;;589.50;1996.80;;;;;;5090660;28;19912;-66
2022/10/01 07:46:22;;;;;;;;;;;589.70;1971.20;;;;;;5091121;28;19913;-63
2022/10/01 07:48:48;;;;;;;;;;;614.40;1971.20;;;;;;5090576;28;19916;-67
2022/10/01 07:51:13;;;;;;;;;;;614.70;1945.60;;;;;;5090812;28;19916;-67
2022/10/01 07:53:39;;;;;;;;;;;615.00;1945.60;;;;;;5090342;28;19908;-66
2022/10/01 07:56:04;;;;;;;;;;;640.00;1868.80;;;;;;5090478;28;20265;-64
2022/10/01 07:58:30;;;;;;;;;;;640.40;1843.20;;;;;;5090722;28;20361;-61
2022/10/01 08:00:57;;;;;;;;;;;640.30;1868.80;;;;;;5090615;28;19920;-65
2022/10/01 08:03:23;;;;;;;;;;;615.30;1894.40;;;;;;5090924;28;20259;-69
2022/10/01 08:05:49;;;;;;;;;;;615.00;1894.40;;;;;;5090146;28;19924;-71
2022/10/01 08:08:14;;;;;;;;;;;614.80;1920.00;;;;;;5090242;28;20352;-62
2022/10/01 08:10:40;;;;;;;;;;;615.10;1894.40;;;;;;5090617;28;19908;-63
2022/10/01 08:13:07;;;;;;;;;;;640.00;1894.40;;;;;;5090326;28;19912;-68
2022/10/01 08:15:33;;;;;;;;;;;640.10;1894.40;;;;;;5090723;28;20273;-71
2022/10/01 08:18:02;;;;;;;;;;;640.10;1868.80;;;;;;5090161;28;19908;-71
2022/10/01 08:20:28;;;;;;;;;;;640.20;1868.80;;;;;;5090143;28;19915;-70
2022/10/01 08:22:59;;;;;;;;;;;640.30;1843.20;;;;;;5090556;28;20098;-71
2022/10/01 08:25:25;;;;;;;;;;;640.30;1868.80;;;;;;5090091;28;20266;-61
2022/10/01 08:27:50;;;;;;;;;;;640.40;1868.80;;;;;;5090584;28;19915;-71
2022/10/01 08:30:16;;;;;;;;;;;640.20;1868.80;;;;;;5090340;28;20263;-71
2022/10/01 08:32:41;;;;;;;;;;;640.40;1868.80;;;;;;5090357;28;19908;-70
2022/10/01 08:35:07;;;;;;;;;;;640.20;1868.80;;;;;;5090177;28;19913;-71
2022/10/01 08:37:33;;;;;;;;;;;640.20;1894.40;;;;;;5090058;28;19908;-66
2022/10/01 08:39:59;;;;;;;;;;;640.20;1894.40;;;;;;5090072;28;19999;-65
2022/10/01 08:42:35;;;;;;;;;;;640.20;1894.40;;;;;;5090099;28;20388;-65
2022/10/01 08:45:04;;;;;;;;;;;640.10;1894.40;;;;;;5090207;28;19908;-72
2022/10/01 08:47:34;;;;;;;;;;;640.00;1894.40;;;;;;5090130;28;19961;-71
2022/10/01 08:50:05;;;;;;;;;;;615.30;1920.00;;;;;;5090089;28;19920;-71
2022/10/01 08:52:32;;;;;;;;;;;615.20;1920.00;;;;;;5090253;28;20247;-65
2022/10/01 08:55:01;;;;;;;;;;;615.10;1945.60;;;;;;5089954;28;19908;-69
2022/10/01 08:57:37;;;;;;;;;;;615.10;1945.60;;;;;;5090096;28;19915;-61
2022/10/01 09:00:06;;;;;;;;;;;615.10;1971.20;;;;;;5090234;28;19955;-70
2022/10/01 09:02:37;;;;;;;;;;;614.90;1920.00;;;;;;5090316;28;19908;-70
2022/10/01 09:05:05;;;;;;;;;;;614.90;1971.20;;;;;;5089890;28;19924;-64
2022/10/01 09:07:43;;;;;;;;;;;614.90;1945.60;;;;;;5092911;28;19909;-69
2022/10/01 09:10:16;;;;;;;;;;;615.00;1971.20;;;;;;5093623;28;20335;-63
2022/10/01 09:12:41;;;;;;;;;;;614.90;1945.60;;;;;;5093871;28;19915;-69
2022/10/01 09:15:32;;;;;;;;;;;615.00;1945.60;;;;;;5093264;28;20269;-70
2022/10/01 09:18:03;;;;;;;;;;;615.00;1920.00;;;;;;5093264;28;20320;-69
2022/10/01 09:20:37;;;;;;;;;;;615.20;1920.00;;;;;;5093522;28;19912;-70
2022/10/01 09:23:14;;;;;;;;;;;615.30;1894.40;;;;;;5093419;28;20376;-70
2022/10/01 09:25:39;;;;;;;;;;;640.10;1920.00;;;;;;5093216;28;19999;-70
2022/10/01 09:28:14;;;;;;;;;;;640.40;1894.40;;;;;;5093049;28;20011;-63
2022/10/01 09:31:00;;;;;;;;;;;640.50;1868.80;;;;;;5092918;28;19919;-71
2022/10/01 09:33:29;;;;;;;;;;;640.70;1843.20;;;;;;5085432;28;20033;-69
2022/10/01 09:35:58;;;;;;;;;;;640.90;1843.20;;;;;;5091922;28;20263;-66
2022/10/01 09:38:39;;;;;;;;;;;665.70;1843.20;;;;;;5091458;28;20003;-64
2022/10/01 09:41:06;;;;;;;;;;;665.90;1843.20;;;;;;5091481;28;20058;-60
2022/10/01 09:43:32;;;;;;;;;;;666.20;1868.80;;;;;;5091595;28;19912;-62
2022/10/01 09:45:58;;;;;;;;;;;666.20;1843.20;;;;;;5091513;28;19915;-61
2022/10/01 09:48:26;;;;;;;;;;;666.20;1843.20;;;;;;5091088;28;19912;-62
2022/10/01 09:50:57;;;;;;;;;;;666.30;1817.60;;;;;;5091336;28;19977;-71
2022/10/01 09:53:35;;;;;;;;;;;666.30;1817.60;;;;;;5091326;28;19908;-69
2022/10/01 09:56:09;;;;;;;;;;;666.30;1843.20;;;;;;5091280;28;19912;-63
2022/10/01 09:58:37;;;;;;;;;;;666.30;1868.80;;;;;;5091324;28;20128;-72
2022/10/01 10:01:09;;;;;;;;;;;691.20;1817.60;;;;;;5091114;28;19908;-70
2022/10/01 10:03:35;;;;;;;;;;;691.20;1817.60;;;;;;5090035;28;19916;-70
2022/10/01 10:06:00;;;;;;;;;;;691.20;1817.60;;;;;;5090771;28;19981;-73
2022/10/01 10:08:28;;;;;;;;;;;691.30;1843.20;;;;;;5090576;28;19916;-70
2022/10/01 10:10:59;;;;;;;;;;;691.20;1817.60;;;;;;5091152;28;19961;-71
2022/10/01 10:13:30;;;;;;;;;;;691.20;1843.20;;;;;;5091192;28;19984;-64
2022/10/01 10:15:57;;;;;;;;;;;691.20;1843.20;;;;;;5090109;28;19966;-71
2022/10/01 10:18:28;;;;;;;;;;;691.20;1843.20;;;;;;5089747;28;19961;-69
2022/10/01 10:20:55;;;;;;;;;;;691.20;1868.80;;;;;;5090893;28;20320;-65
2022/10/01 10:23:23;;;;;;;;;;;691.60;1843.20;;;;;;5090495;28;19908;-60
2022/10/01 10:25:53;;;;;;;;;;;691.70;1843.20;;;;;;5090725;28;20340;-62
2022/10/01 10:28:19;;;;;;;;;;;691.80;1817.60;;;;;;5089904;28;19916;-68
2022/10/01 10:30:46;;;;;;;;;;;692.10;1843.20;;;;;;5090040;28;19961;-61
2022/10/01 10:33:12;;;;;;;;;;;692.10;1843.20;;;;;;5090358;28;19912;-60
2022/10/01 10:35:38;;;;;;;;;;;692.10;1868.80;;;;;;5090185;28;19965;-72
2022/10/01 10:38:04;;;;;;;;;;;692.10;1843.20;;;;;;5089476;28;19912;-68
2022/10/01 10:40:33;;;;;;;;;;;692.10;1894.40;;;;;;5090401;28;19908;-60
2022/10/01 10:42:58;;;;;;;;;;;692.00;1868.80;;;;;;5089635;28;20354;-65
2022/10/01 10:45:30;;;;;;;;;;;691.90;1868.80;;;;;;5090256;28;19919;-72
2022/10/01 10:47:56;;;;;;;;;;;692.00;1843.20;;;;;;5090031;28;19916;-66
2022/10/01 10:50:28;;;;;;;;;;;691.90;1843.20;;;;;;5090174;28;19916;-71
2022/10/01 10:52:54;;;;;;;;;;;692.00;1843.20;;;;;;5090223;28;20340;-71
2022/10/01 10:55:22;;;;;;;;;;;692.10;1843.20;;;;;;5089386;28;19908;-70
2022/10/01 10:57:47;;;;;;;;;;;716.80;1868.80;;;;;;5089655;28;19908;-69
2022/10/01 11:00:17;;;;;;;;;;;716.80;1894.40;;;;;;5089903;28;20009;-72
2022/10/01 11:02:52;;;;;;;;;;;716.80;1920.00;;;;;;5089772;28;19912;-61
2022/10/01 11:05:22;;;;;;;;;;;716.80;1894.40;;;;;;5089519;28;19928;-62
2022/10/01 11:07:49;;;;;;;;;;;692.10;1894.40;;;;;;5089064;28;19908;-72
2022/10/01 11:10:15;;;;;;;;;;;692.10;1920.00;;;;;;5089615;28;19932;-61
2022/10/01 11:12:59;;;;;;;;;;;692.00;1843.20;;;;;;5089895;28;19912;-62
2022/10/01 11:15:30;;;;;;;;;;;692.10;1894.40;;;;;;5089821;28;19919;-70
2022/10/01 11:18:02;;;;;;;;;;;691.90;1843.20;;;;;;5089404;28;19912;-68
2022/10/01 11:20:35;;;;;;;;;;;716.80;1868.80;;;;;;5089183;28;19977;-64
2022/10/01 11:23:17;;;;;;;;;;;716.80;1894.40;;;;;;5089545;28;19935;-63
2022/10/01 11:25:48;;;;;;;;;;;716.80;1868.80;;;;;;5089161;28;19965;-61
2022/10/01 11:28:23;;;;;;;;;;;716.80;1894.40;;;;;;5089344;28;20358;-61
2022/10/01 11:30:49;;;;;;;;;;;716.80;1868.80;;;;;;5088214;28;19916;-70
2022/10/01 11:33:33;;;;;;;;;;;716.80;1868.80;;;;;;5087481;28;19924;-62
2022/10/01 11:36:05;;;;;;;;;;;716.80;1894.40;;;;;;5087644;28;19916;-74
2022/10/01 11:38:35;;;;;;;;;;;692.10;1868.80;;;;;;5090054;28;19992;-72
2022/10/01 11:41:19;;;;;;;;;;;692.10;1868.80;;;;;;5089628;28;19912;-72
2022/10/01 11:43:56;;;;;;;;;;;716.80;1868.80;;;;;;5087417;28;19919;-72
2022/10/01 11:46:25;;;;;;;;;;;716.80;1868.80;;;;;;5087068;28;19915;-73
2022/10/01 11:49:10;;;;;;;;;;;716.80;1843.20;;;;;;5089900;28;19916;-61
2022/10/01 11:51:41;;;;;;;;;;;717.00;1894.40;;;;;;5090560;28;19908;-68
2022/10/01 11:54:10;;;;;;;;;;;717.10;1868.80;;;;;;5090383;28;20373;-63
2022/10/01 11:59:28;;;;;;;;;;;717.00;1868.80;;;;;;5090749;28;19947;-72
2022/10/01 12:02:07;;;;;;;;;;;717.00;1868.80;;;;;;5090706;28;19953;-72
2022/10/01 12:04:40;;;;;;;;;;;717.10;1868.80;;;;;;5090347;28;19969;-72
2022/10/01 12:07:25;;;;;;;;;;;717.20;1894.40;;;;;;5090186;28;19924;-62
2022/10/01 12:09:54;;;;;;;;;;;717.20;1894.40;;;;;;5090405;28;19916;-62
2022/10/01 12:12:22;;;;;;;;;;;717.40;1843.20;;;;;;5090076;28;19915;-61
2022/10/01 12:14:55;;;;;;;;;;;717.40;1843.20;;;;;;5089931;28;20265;-62
2022/10/01 12:17:37;;;;;;;;;;;717.40;1868.80;;;;;;5090374;28;19952;-61
2022/10/01 12:20:04;;;;;;;;;;;717.40;1894.40;;;;;;5090506;28;20258;-62
2022/10/01 12:22:32;;;;;;;;;;;717.20;1868.80;;;;;;5090530;28;20415;-62
2022/10/01 12:24:58;;;;;;;;;;;717.10;1868.80;;;;;;5090150;28;20373;-62
2022/10/01 12:27:23;;;;;;;;;;;717.00;1868.80;;;;;;5090829;28;19909;-67
2022/10/01 12:29:52;;;;;;;;;;;716.90;1868.80;;;;;;5090396;28;20271;-66
2022/10/01 12:32:17;;;;;;;;;;;716.80;1868.80;;;;;;5090348;28;19977;-65
2022/10/01 12:34:49;;;;;;;;;;;716.80;1894.40;;;;;;5090354;28;20425;-60
2022/10/01 12:37:23;;;;;;;;;;;692.10;1868.80;;;;;;5090456;28;19942;-64
2022/10/01 12:39:54;;;;;;;;;;;716.80;1894.40;;;;;;5090015;28;20012;-65
2022/10/01 12:42:20;;;;;;;;;;;716.90;1920.00;;;;;;5093327;28;19908;-65
2022/10/01 12:45:04;;;;;;;;;;;717.20;1920.00;;;;;;5094160;28;19916;-60
2022/10/01 12:47:41;;;;;;;;;;;717.30;1868.80;;;;;;5094326;28;20045;-65
2022/10/01 12:50:19;;;;;;;;;;;717.30;1894.40;;;;;;5093767;28;20294;-60
2022/10/01 12:53:10;;;;;;;;;;;717.40;1920.00;;;;;;5093983;28;20263;-61
2022/10/01 12:55:41;;;;;;;;;;;717.20;1868.80;;;;;;5093653;28;20322;-63
2022/10/01 12:58:15;;;;;;;;;;;717.10;1868.80;;;;;;5093588;28;20312;-65
2022/10/01 13:00:45;;;;;;;;;;;717.00;1868.80;;;;;;5094013;28;19950;-65
2022/10/01 13:03:23;;;;;;;;;;;716.90;1894.40;;;;;;5094134;28;20350;-64
2022/10/01 13:06:02;;;;;;;;;;;716.90;1920.00;;;;;;5093404;28;20370;-61
2022/10/01 13:08:33;;;;;;;;;;;716.80;1945.60;;;;;;5093438;28;19935;-64
2022/10/01 13:11:02;;;;;;;;;;;716.80;1894.40;;;;;;5093332;28;20270;-61
2022/10/01 13:13:32;;;;;;;;;;;716.90;1945.60;;;;;;5093808;28;19908;-60
2022/10/01 13:16:05;;;;;;;;;;;716.80;1945.60;;;;;;5093496;28;19915;-64
2022/10/01 13:18:43;;;;;;;;;;;716.80;1945.60;;;;;;5093727;28;20059;-65
2022/10/01 13:21:31;;;;;;;;;;;716.90;1971.20;;;;;;5093212;28;20354;-65
2022/10/01 13:24:03;;;;;;;;;;;716.80;1920.00;;;;;;5093238;28;19908;-63
2022/10/01 13:26:41;;;;;;;;;;;716.80;1920.00;;;;;;5092722;28;19908;-65
2022/10/01 13:29:09;;;;;;;;;;;692.10;1894.40;;;;;;5089184;28;20385;-64
2022/10/01 13:31:38;;;;;;;;;;;692.10;1971.20;;;;;;5090990;28;19920;-60
2022/10/01 13:34:33;;;;;;;;;;;692.10;1920.00;;;;;;5090648;28;19919;-64
2022/10/01 13:37:12;;;;;;;;;;;692.10;1920.00;;;;;;5067650;28;20401;-64
2022/10/01 13:39:40;;;;;;;;;;;716.80;1945.60;;;;;;5067569;28;20286;-63
2022/10/01 13:42:13;;;;;;;;;;;716.80;1945.60;;;;;;5065517;28;19909;-62
2022/10/01 13:44:40;;;;;;;;;;;716.80;1971.20;;;;;;5067507;28;19912;-61
2022/10/01 13:47:06;;;;;;;;;;;692.10;1945.60;;;;;;5065353;28;19963;-62
2022/10/01 13:49:33;;;;;;;;;;;716.80;1996.80;;;;;;5067740;28;19920;-63
2022/10/01 13:52:01;;;;;;;;;;;692.10;1945.60;;;;;;5067455;28;19958;-59
2022/10/01 13:54:32;;;;;;;;;;;692.10;1920.00;;;;;;5065300;28;19908;-62
2022/10/01 13:57:21;;;;;;;;;;;691.90;1894.40;;;;;;5067478;28;20532;-61